sensor_id;sensor_type;location;lat;lon;timestamp;pressure;altitude;pressure_sealevel;temperature;humidity
37304;BME280;23188;51.188;16.374;2022-10-26T00:02:48;100533.94;;;11.90;100.00
37304;BME280;23188;51.188;16.374;2022-10-26T00:06:49;100537.22;;;11.88;100.00
37304;BME280;23188;51.188;16.374;2022-10-26T00:10:50;100543.77;;;11.89;100.00
37304;BME280;23188;51.188;16.374;2022-10-26T00:14:51;100548.59;;;11.90;100.00
37304;BME280;23188;51.188;16.374;2022-10-26T00:18:53;100549.21;;;11.88;100.00
37304;BME280;23188;51.188;16.374;2022-10-26T00:22:54;100551.99;;;11.86;100.00
37304;BME280;23188;51.188;16.374;2022-10-26T00:26:55;100548.41;;;11.81;100.00
37304;BME280;23188;51.188;16.374;2022-10-26T00:31:10;100551.69;;;11.79;100.00
37304;BME280;23188;51.188;16.374;2022-10-26T00:35:09;100544.52;;;11.80;100.00
37304;BME280;23188;51.188;16.374;2022-10-26T00:39:12;100541.59;;;11.83;100.00
37304;BME280;23188;51.188;16.374;2022-10-26T00:47:30;100550.45;;;11.83;100.00
37304;BME280;23188;51.188;16.374;2022-10-26T00:51:40;100543.42;;;11.82;100.00
37304;BME280;23188;51.188;16.374;2022-10-26T00:55:42;100548.87;;;11.81;100.00
37304;BME280;23188;51.188;16.374;2022-10-26T00:59:45;100546.02;;;11.73;100.00
37304;BME280;23188;51.188;16.374;2022-10-26T01:03:48;100543.46;;;11.71;100.00
37304;BME280;23188;51.188;16.374;2022-10-26T01:07:50;100536.80;;;11.71;100.00
37304;BME280;23188;51.188;16.374;2022-10-26T01:11:51;100533.78;;;11.70;100.00
37304;BME280;23188;51.188;16.374;2022-10-26T01:16:02;100531.73;;;11.68;100.00
37304;BME280;23188;51.188;16.374;2022-10-26T01:20:43;100532.09;;;11.63;100.00
37304;BME280;23188;51.188;16.374;2022-10-26T01:33:44;100524.87;;;11.60;100.00
37304;BME280;23188;51.188;16.374;2022-10-26T01:37:53;100529.58;;;11.62;100.00
37304;BME280;23188;51.188;16.374;2022-10-26T01:41:58;100531.13;;;11.64;100.00
37304;BME280;23188;51.188;16.374;2022-10-26T01:46:03;100529.68;;;11.66;100.00
37304;BME280;23188;51.188;16.374;2022-10-26T01:50:07;100511.05;;;11.54;100.00
37304;BME280;23188;51.188;16.374;2022-10-26T01:54:09;100529.09;;;11.56;100.00
37304;BME280;23188;51.188;16.374;2022-10-26T02:03:28;100530.22;;;11.48;100.00
37304;BME280;23188;51.188;16.374;2022-10-26T02:11:45;100532.37;;;11.49;100.00
37304;BME280;23188;51.188;16.374;2022-10-26T02:20:29;100527.57;;;11.37;100.00
37304;BME280;23188;51.188;16.374;2022-10-26T02:24:33;100531.71;;;11.35;100.00
37304;BME280;23188;51.188;16.374;2022-10-26T02:28:39;100535.20;;;11.36;100.00
37304;BME280;23188;51.188;16.374;2022-10-26T02:32:47;100536.89;;;11.37;100.00
37304;BME280;23188;51.188;16.374;2022-10-26T02:36:52;100529.05;;;11.35;100.00
37304;BME280;23188;51.188;16.374;2022-10-26T02:40:57;100527.82;;;11.39;100.00
37304;BME280;23188;51.188;16.374;2022-10-26T02:45:02;100539.91;;;11.38;100.00
37304;BME280;23188;51.188;16.374;2022-10-26T02:49:07;100541.25;;;11.38;100.00
37304;BME280;23188;51.188;16.374;2022-10-26T02:57:30;100537.41;;;11.19;100.00
37304;BME280;23188;51.188;16.374;2022-10-26T03:01:39;100539.39;;;11.06;99.55
37304;BME280;23188;51.188;16.374;2022-10-26T03:05:42;100538.05;;;10.94;100.00
37304;BME280;23188;51.188;16.374;2022-10-26T03:09:43;100537.11;;;10.84;100.00
37304;BME280;23188;51.188;16.374;2022-10-26T03:13:45;100537.83;;;10.63;100.00
37304;BME280;23188;51.188;16.374;2022-10-26T03:17:46;100535.27;;;10.45;100.00
37304;BME280;23188;51.188;16.374;2022-10-26T03:21:47;100535.59;;;10.40;100.00
37304;BME280;23188;51.188;16.374;2022-10-26T03:25:49;100537.94;;;10.45;100.00
37304;BME280;23188;51.188;16.374;2022-10-26T03:29:50;100541.18;;;10.48;100.00
37304;BME280;23188;51.188;16.374;2022-10-26T03:33:51;100545.18;;;10.54;100.00
37304;BME280;23188;51.188;16.374;2022-10-26T03:37:52;100547.96;;;10.58;100.00
37304;BME280;23188;51.188;16.374;2022-10-26T03:41:54;100549.91;;;10.62;100.00
37304;BME280;23188;51.188;16.374;2022-10-26T03:45:55;100551.96;;;10.64;100.00
37304;BME280;23188;51.188;16.374;2022-10-26T03:49:57;100554.88;;;10.66;100.00
37304;BME280;23188;51.188;16.374;2022-10-26T03:53:59;100551.97;;;10.69;100.00
37304;BME280;23188;51.188;16.374;2022-10-26T03:58:00;100547.12;;;10.69;100.00
37304;BME280;23188;51.188;16.374;2022-10-26T04:02:01;100555.00;;;10.70;100.00
37304;BME280;23188;51.188;16.374;2022-10-26T04:06:03;100551.97;;;10.69;100.00
37304;BME280;23188;51.188;16.374;2022-10-26T04:10:05;100550.53;;;10.65;100.00
37304;BME280;23188;51.188;16.374;2022-10-26T04:14:07;100551.50;;;10.64;100.00
37304;BME280;23188;51.188;16.374;2022-10-26T04:18:09;100551.13;;;10.63;100.00
37304;BME280;23188;51.188;16.374;2022-10-26T04:22:13;100549.92;;;10.67;100.00
37304;BME280;23188;51.188;16.374;2022-10-26T04:26:14;100562.12;;;10.70;100.00
37304;BME280;23188;51.188;16.374;2022-10-26T04:30:16;100562.62;;;10.69;100.00
37304;BME280;23188;51.188;16.374;2022-10-26T04:34:17;100566.96;;;10.53;100.00
37304;BME280;23188;51.188;16.374;2022-10-26T04:38:18;100572.25;;;10.06;100.00
37304;BME280;23188;51.188;16.374;2022-10-26T04:42:20;100570.54;;;9.75;100.00
37304;BME280;23188;51.188;16.374;2022-10-26T04:46:21;100571.73;;;9.71;100.00
37304;BME280;23188;51.188;16.374;2022-10-26T04:50:22;100571.52;;;9.55;100.00
37304;BME280;23188;51.188;16.374;2022-10-26T04:54:23;100567.68;;;9.35;100.00
37304;BME280;23188;51.188;16.374;2022-10-26T04:58:25;100567.68;;;9.35;100.00
37304;BME280;23188;51.188;16.374;2022-10-26T05:02:28;100571.48;;;9.44;100.00
37304;BME280;23188;51.188;16.374;2022-10-26T05:06:29;100569.38;;;9.42;100.00
37304;BME280;23188;51.188;16.374;2022-10-26T05:10:30;100567.73;;;9.47;100.00
37304;BME280;23188;51.188;16.374;2022-10-26T05:14:32;100568.77;;;9.63;100.00
37304;BME280;23188;51.188;16.374;2022-10-26T05:18:33;100574.25;;;9.67;100.00
37304;BME280;23188;51.188;16.374;2022-10-26T05:22:34;100572.98;;;9.60;100.00
37304;BME280;23188;51.188;16.374;2022-10-26T05:26:35;100568.28;;;9.39;100.00
37304;BME280;23188;51.188;16.374;2022-10-26T05:30:37;100566.18;;;9.31;100.00
37304;BME280;23188;51.188;16.374;2022-10-26T05:34:39;100580.82;;;9.18;100.00
37304;BME280;23188;51.188;16.374;2022-10-26T05:38:40;100581.07;;;9.02;100.00
37304;BME280;23188;51.188;16.374;2022-10-26T05:42:42;100579.23;;;8.97;100.00
37304;BME280;23188;51.188;16.374;2022-10-26T05:46:45;100585.13;;;8.95;100.00
37304;BME280;23188;51.188;16.374;2022-10-26T05:50:47;100589.84;;;8.97;100.00
37304;BME280;23188;51.188;16.374;2022-10-26T05:54:48;100595.00;;;9.11;100.00
37304;BME280;23188;51.188;16.374;2022-10-26T05:58:50;100596.80;;;9.24;100.00
37304;BME280;23188;51.188;16.374;2022-10-26T06:07:19;100595.08;;;9.79;100.00
37304;BME280;23188;51.188;16.374;2022-10-26T06:11:21;100594.58;;;10.04;100.00
37304;BME280;23188;51.188;16.374;2022-10-26T06:15:39;100599.14;;;10.26;100.00
37304;BME280;23188;51.188;16.374;2022-10-26T06:21:00;100598.38;;;10.42;100.00
37304;BME280;23188;51.188;16.374;2022-10-26T06:29:27;100607.72;;;10.77;100.00
37304;BME280;23188;51.188;16.374;2022-10-26T06:33:48;100603.40;;;10.93;100.00
37304;BME280;23188;51.188;16.374;2022-10-26T06:37:50;100603.86;;;11.15;100.00
37304;BME280;23188;51.188;16.374;2022-10-26T06:41:53;100607.98;;;11.31;100.00
37304;BME280;23188;51.188;16.374;2022-10-26T06:50:37;100606.50;;;11.49;100.00
37304;BME280;23188;51.188;16.374;2022-10-26T06:54:53;100622.95;;;11.54;100.00
37304;BME280;23188;51.188;16.374;2022-10-26T06:58:59;100610.70;;;11.63;100.00
37304;BME280;23188;51.188;16.374;2022-10-26T07:03:02;100604.50;;;11.68;100.00
37304;BME280;23188;51.188;16.374;2022-10-26T07:07:03;100604.98;;;11.79;100.00
37304;BME280;23188;51.188;16.374;2022-10-26T07:11:04;100609.55;;;11.89;100.00
37304;BME280;23188;51.188;16.374;2022-10-26T07:15:07;100613.77;;;12.03;100.00
37304;BME280;23188;51.188;16.374;2022-10-26T07:19:08;100615.27;;;12.17;100.00
37304;BME280;23188;51.188;16.374;2022-10-26T07:23:09;100620.66;;;12.32;100.00
37304;BME280;23188;51.188;16.374;2022-10-26T07:27:11;100621.06;;;12.49;100.00
37304;BME280;23188;51.188;16.374;2022-10-26T07:31:12;100626.91;;;12.64;100.00
37304;BME280;23188;51.188;16.374;2022-10-26T07:35:13;100625.01;;;12.76;100.00
37304;BME280;23188;51.188;16.374;2022-10-26T07:39:15;100626.36;;;12.91;100.00
37304;BME280;23188;51.188;16.374;2022-10-26T07:43:16;100625.80;;;12.88;100.00
37304;BME280;23188;51.188;16.374;2022-10-26T07:47:17;100622.67;;;12.98;100.00
37304;BME280;23188;51.188;16.374;2022-10-26T07:51:19;100625.34;;;12.98;100.00
37304;BME280;23188;51.188;16.374;2022-10-26T07:55:20;100633.09;;;13.01;100.00
37304;BME280;23188;51.188;16.374;2022-10-26T07:59:21;100635.84;;;13.21;100.00
37304;BME280;23188;51.188;16.374;2022-10-26T08:03:22;100638.83;;;13.27;100.00
37304;BME280;23188;51.188;16.374;2022-10-26T08:07:24;100630.86;;;13.53;100.00
37304;BME280;23188;51.188;16.374;2022-10-26T08:15:47;100633.55;;;14.08;100.00
37304;BME280;23188;51.188;16.374;2022-10-26T08:19:49;100622.61;;;14.45;100.00
37304;BME280;23188;51.188;16.374;2022-10-26T08:23:50;100627.45;;;14.75;100.00
37304;BME280;23188;51.188;16.374;2022-10-26T08:27:52;100626.80;;;15.01;100.00
37304;BME280;23188;51.188;16.374;2022-10-26T08:31:54;100628.33;;;15.27;100.00
37304;BME280;23188;51.188;16.374;2022-10-26T08:36:02;100634.80;;;15.52;100.00
37304;BME280;23188;51.188;16.374;2022-10-26T08:40:05;100631.92;;;15.64;100.00
37304;BME280;23188;51.188;16.374;2022-10-26T08:48:37;100634.80;;;15.52;99.23
37304;BME280;23188;51.188;16.374;2022-10-26T08:52:45;100634.34;;;15.71;100.00
37304;BME280;23188;51.188;16.374;2022-10-26T08:56:59;100631.55;;;15.91;100.00
37304;BME280;23188;51.188;16.374;2022-10-26T09:01:03;100628.89;;;16.09;99.64
37304;BME280;23188;51.188;16.374;2022-10-26T09:05:21;100630.53;;;16.24;97.76
37304;BME280;23188;51.188;16.374;2022-10-26T09:23:00;100635.53;;;16.63;92.83
37304;BME280;23188;51.188;16.374;2022-10-26T09:27:19;100638.45;;;16.74;94.20
37304;BME280;23188;51.188;16.374;2022-10-26T09:31:20;100641.72;;;16.86;94.20
37304;BME280;23188;51.188;16.374;2022-10-26T09:35:48;100638.08;;;16.91;92.87
37304;BME280;23188;51.188;16.374;2022-10-26T09:39:59;100643.20;;;17.03;91.91
37304;BME280;23188;51.188;16.374;2022-10-26T09:52:48;100645.19;;;17.31;90.69
37304;BME280;23188;51.188;16.374;2022-10-26T09:56:54;100644.02;;;17.30;89.02
37304;BME280;23188;51.188;16.374;2022-10-26T10:00:57;100642.34;;;17.33;91.87
37304;BME280;23188;51.188;16.374;2022-10-26T10:04:59;100649.75;;;17.35;90.08
37304;BME280;23188;51.188;16.374;2022-10-26T10:09:21;100644.23;;;17.45;92.41
37304;BME280;23188;51.188;16.374;2022-10-26T10:13:25;100639.06;;;17.55;92.42
37304;BME280;23188;51.188;16.374;2022-10-26T10:17:28;100642.96;;;17.65;91.42
37304;BME280;23188;51.188;16.374;2022-10-26T10:21:38;100639.30;;;17.79;90.53
37304;BME280;23188;51.188;16.374;2022-10-26T10:25:42;100637.30;;;17.89;90.41
37304;BME280;23188;51.188;16.374;2022-10-26T10:29:47;100632.98;;;18.05;89.54
37304;BME280;23188;51.188;16.374;2022-10-26T10:33:50;100631.48;;;18.15;88.00
37304;BME280;23188;51.188;16.374;2022-10-26T10:37:52;100633.16;;;18.32;86.35
37304;BME280;23188;51.188;16.374;2022-10-26T10:41:54;100632.81;;;18.44;86.36
37304;BME280;23188;51.188;16.374;2022-10-26T10:45:56;100637.03;;;18.30;86.36
37304;BME280;23188;51.188;16.374;2022-10-26T10:50:16;100637.53;;;18.37;86.17
37304;BME280;23188;51.188;16.374;2022-10-26T10:54:37;100644.09;;;18.47;85.72
37304;BME280;23188;51.188;16.374;2022-10-26T10:58:54;100647.98;;;18.49;83.61
37304;BME280;23188;51.188;16.374;2022-10-26T11:07:53;100639.55;;;18.39;87.35
37304;BME280;23188;51.188;16.374;2022-10-26T11:12:08;100636.03;;;18.39;86.82
37304;BME280;23188;51.188;16.374;2022-10-26T11:16:12;100633.99;;;18.49;85.95
37304;BME280;23188;51.188;16.374;2022-10-26T11:20:21;100635.17;;;18.55;85.67
37304;BME280;23188;51.188;16.374;2022-10-26T11:24:42;100634.83;;;18.58;86.30
37304;BME280;23188;51.188;16.374;2022-10-26T11:33:21;100638.20;;;18.68;84.06
37304;BME280;23188;51.188;16.374;2022-10-26T11:37:31;100635.16;;;18.72;82.67
37304;BME280;23188;51.188;16.374;2022-10-26T11:46:17;100628.70;;;18.85;83.78
37304;BME280;23188;51.188;16.374;2022-10-26T11:50:28;100630.58;;;18.84;83.39
37304;BME280;23188;51.188;16.374;2022-10-26T11:54:39;100626.02;;;18.89;82.10
37304;BME280;23188;51.188;16.374;2022-10-26T11:58:47;100624.34;;;18.88;83.41
37304;BME280;23188;51.188;16.374;2022-10-26T12:02:57;100629.41;;;18.79;83.18
37304;BME280;23188;51.188;16.374;2022-10-26T12:07:07;100631.73;;;18.86;81.85
37304;BME280;23188;51.188;16.374;2022-10-26T12:24:34;100626.87;;;18.86;80.39
37304;BME280;23188;51.188;16.374;2022-10-26T12:28:39;100630.72;;;18.95;79.06
37304;BME280;23188;51.188;16.374;2022-10-26T12:41:10;100630.37;;;19.11;78.50
37304;BME280;23188;51.188;16.374;2022-10-26T12:45:20;100633.36;;;19.20;76.22
37304;BME280;23188;51.188;16.374;2022-10-26T13:07:23;100628.92;;;19.36;76.46
37304;BME280;23188;51.188;16.374;2022-10-26T13:11:28;100626.20;;;19.40;76.41
37304;BME280;23188;51.188;16.374;2022-10-26T13:15:38;100620.12;;;19.46;76.00
37304;BME280;23188;51.188;16.374;2022-10-26T13:19:43;100618.88;;;19.53;75.70
37304;BME280;23188;51.188;16.374;2022-10-26T13:28:03;100614.28;;;19.66;75.04
37304;BME280;23188;51.188;16.374;2022-10-26T13:32:11;100612.53;;;19.73;74.90
37304;BME280;23188;51.188;16.374;2022-10-26T13:36:22;100607.80;;;19.75;74.10
37304;BME280;23188;51.188;16.374;2022-10-26T13:40:29;100612.14;;;19.80;73.21
37304;BME280;23188;51.188;16.374;2022-10-26T13:49:00;100617.83;;;19.94;73.73
37304;BME280;23188;51.188;16.374;2022-10-26T13:53:13;100612.23;;;20.00;73.16
37304;BME280;23188;51.188;16.374;2022-10-26T14:01:36;100616.41;;;20.02;73.38
37304;BME280;23188;51.188;16.374;2022-10-26T14:05:40;100618.28;;;20.02;73.66
37304;BME280;23188;51.188;16.374;2022-10-26T14:09:43;100618.61;;;20.03;73.65
37304;BME280;23188;51.188;16.374;2022-10-26T14:13:50;100612.77;;;19.91;74.05
37304;BME280;23188;51.188;16.374;2022-10-26T14:17:53;100617.50;;;19.89;74.63
37304;BME280;23188;51.188;16.374;2022-10-26T14:21:56;100615.40;;;19.76;74.39
37304;BME280;23188;51.188;16.374;2022-10-26T14:25:57;100615.23;;;19.73;75.62
37304;BME280;23188;51.188;16.374;2022-10-26T14:29:59;100617.28;;;19.71;73.96
37304;BME280;23188;51.188;16.374;2022-10-26T14:34:03;100615.41;;;19.72;74.66
37304;BME280;23188;51.188;16.374;2022-10-26T14:38:26;100608.48;;;19.73;74.70
37304;BME280;23188;51.188;16.374;2022-10-26T14:42:31;100603.59;;;19.73;75.67
37304;BME280;23188;51.188;16.374;2022-10-26T14:46:40;100605.83;;;19.69;75.75
37304;BME280;23188;51.188;16.374;2022-10-26T14:50:43;100607.86;;;19.63;76.07
37304;BME280;23188;51.188;16.374;2022-10-26T14:54:57;100607.27;;;19.52;76.64
37304;BME280;23188;51.188;16.374;2022-10-26T14:59:11;100603.41;;;19.47;77.42
37304;BME280;23188;51.188;16.374;2022-10-26T15:03:15;100598.89;;;19.39;79.35
37304;BME280;23188;51.188;16.374;2022-10-26T15:07:18;100607.86;;;19.31;80.34
37304;BME280;23188;51.188;16.374;2022-10-26T15:11:19;100602.34;;;19.20;81.59
37304;BME280;23188;51.188;16.374;2022-10-26T15:15:45;100604.92;;;19.09;82.92
37304;BME280;23188;51.188;16.374;2022-10-26T15:19:47;100612.02;;;18.98;83.02
37304;BME280;23188;51.188;16.374;2022-10-26T15:23:50;100614.90;;;18.84;83.41
37304;BME280;23188;51.188;16.374;2022-10-26T15:27:52;100616.44;;;18.74;83.61
37304;BME280;23188;51.188;16.374;2022-10-26T15:31:59;100615.95;;;18.62;84.03
37304;BME280;23188;51.188;16.374;2022-10-26T15:36:10;100616.83;;;18.46;84.35
37304;BME280;23188;51.188;16.374;2022-10-26T15:40:15;100626.08;;;18.27;85.10
37304;BME280;23188;51.188;16.374;2022-10-26T15:44:20;100623.37;;;18.02;85.51
37304;BME280;23188;51.188;16.374;2022-10-26T15:48:27;100632.54;;;17.66;88.26
37304;BME280;23188;51.188;16.374;2022-10-26T15:52:34;100632.09;;;17.36;88.52
37304;BME280;23188;51.188;16.374;2022-10-26T15:56:35;100635.89;;;17.17;88.71
37304;BME280;23188;51.188;16.374;2022-10-26T16:00:42;100640.52;;;17.07;88.29
37304;BME280;23188;51.188;16.374;2022-10-26T16:04:44;100645.95;;;16.89;88.77
37304;BME280;23188;51.188;16.374;2022-10-26T16:08:51;100653.98;;;16.62;89.41
37304;BME280;23188;51.188;16.374;2022-10-26T16:12:53;100661.69;;;16.39;90.95
37304;BME280;23188;51.188;16.374;2022-10-26T16:16:55;100663.41;;;16.04;94.41
37304;BME280;23188;51.188;16.374;2022-10-26T16:20:56;100667.32;;;15.81;94.55
37304;BME280;23188;51.188;16.374;2022-10-26T16:29:14;100682.38;;;15.78;94.99
37304;BME280;23188;51.188;16.374;2022-10-26T16:33:16;100692.20;;;15.74;94.88
37304;BME280;23188;51.188;16.374;2022-10-26T16:37:18;100690.57;;;15.63;95.35
37304;BME280;23188;51.188;16.374;2022-10-26T16:41:20;100694.30;;;15.38;98.42
37304;BME280;23188;51.188;16.374;2022-10-26T16:45:21;100692.33;;;15.16;100.00
37304;BME280;23188;51.188;16.374;2022-10-26T16:49:23;100690.16;;;15.06;100.00
37304;BME280;23188;51.188;16.374;2022-10-26T16:53:26;100680.53;;;14.89;100.00
37304;BME280;23188;51.188;16.374;2022-10-26T16:57:27;100684.72;;;14.88;100.00
37304;BME280;23188;51.188;16.374;2022-10-26T17:01:28;100694.59;;;14.77;100.00
37304;BME280;23188;51.188;16.374;2022-10-26T17:05:30;100698.59;;;14.67;100.00
37304;BME280;23188;51.188;16.374;2022-10-26T17:09:31;100704.17;;;14.60;100.00
37304;BME280;23188;51.188;16.374;2022-10-26T17:13:34;100712.39;;;14.43;100.00
37304;BME280;23188;51.188;16.374;2022-10-26T17:17:35;100714.94;;;14.25;100.00
37304;BME280;23188;51.188;16.374;2022-10-26T17:21:37;100712.55;;;14.22;100.00
37304;BME280;23188;51.188;16.374;2022-10-26T17:25:38;100714.45;;;14.16;100.00
37304;BME280;23188;51.188;16.374;2022-10-26T17:29:39;100714.92;;;14.15;100.00
37304;BME280;23188;51.188;16.374;2022-10-26T17:33:42;100719.34;;;14.10;100.00
37304;BME280;23188;51.188;16.374;2022-10-26T17:37:44;100724.48;;;13.98;100.00
37304;BME280;23188;51.188;16.374;2022-10-26T17:41:45;100727.83;;;13.90;100.00
37304;BME280;23188;51.188;16.374;2022-10-26T17:45:47;100739.44;;;13.95;100.00
37304;BME280;23188;51.188;16.374;2022-10-26T17:49:48;100747.61;;;13.93;100.00
37304;BME280;23188;51.188;16.374;2022-10-26T17:53:51;100757.30;;;13.84;100.00
37304;BME280;23188;51.188;16.374;2022-10-26T17:57:53;100756.89;;;13.89;100.00
37304;BME280;23188;51.188;16.374;2022-10-26T18:01:59;100759.30;;;13.92;100.00
37304;BME280;23188;51.188;16.374;2022-10-26T18:06:02;100767.31;;;13.92;100.00
37304;BME280;23188;51.188;16.374;2022-10-26T18:10:04;100765.39;;;13.89;100.00
37304;BME280;23188;51.188;16.374;2022-10-26T18:14:05;100760.29;;;13.76;100.00
37304;BME280;23188;51.188;16.374;2022-10-26T18:18:07;100765.28;;;13.59;100.00
37304;BME280;23188;51.188;16.374;2022-10-26T18:22:09;100764.56;;;13.36;100.00
37304;BME280;23188;51.188;16.374;2022-10-26T18:26:19;100762.34;;;13.25;100.00
37304;BME280;23188;51.188;16.374;2022-10-26T18:30:22;100770.27;;;13.21;100.00
37304;BME280;23188;51.188;16.374;2022-10-26T18:34:25;100770.41;;;13.14;100.00
37304;BME280;23188;51.188;16.374;2022-10-26T18:38:27;100773.30;;;13.22;100.00
37304;BME280;23188;51.188;16.374;2022-10-26T18:42:28;100775.19;;;13.26;100.00
37304;BME280;23188;51.188;16.374;2022-10-26T18:46:31;100783.33;;;13.30;100.00
37304;BME280;23188;51.188;16.374;2022-10-26T18:50:37;100790.98;;;13.29;100.00
37304;BME280;23188;51.188;16.374;2022-10-26T18:54:39;100783.53;;;13.17;100.00
37304;BME280;23188;51.188;16.374;2022-10-26T18:58:43;100790.42;;;13.20;100.00
37304;BME280;23188;51.188;16.374;2022-10-26T19:02:47;100783.95;;;13.28;100.00
37304;BME280;23188;51.188;16.374;2022-10-26T19:06:49;100784.87;;;13.33;100.00
37304;BME280;23188;51.188;16.374;2022-10-26T19:10:50;100795.41;;;13.40;100.00
37304;BME280;23188;51.188;16.374;2022-10-26T19:14:51;100796.23;;;13.46;100.00
37304;BME280;23188;51.188;16.374;2022-10-26T19:18:55;100803.72;;;13.52;100.00
37304;BME280;23188;51.188;16.374;2022-10-26T19:23:00;100800.03;;;13.59;100.00
37304;BME280;23188;51.188;16.374;2022-10-26T19:27:01;100808.64;;;13.63;100.00
37304;BME280;23188;51.188;16.374;2022-10-26T19:31:06;100819.06;;;13.66;100.00
37304;BME280;23188;51.188;16.374;2022-10-26T19:35:08;100829.63;;;13.67;100.00
37304;BME280;23188;51.188;16.374;2022-10-26T19:39:09;100832.19;;;13.63;99.37
37304;BME280;23188;51.188;16.374;2022-10-26T19:43:11;100832.61;;;13.59;99.22
37304;BME280;23188;51.188;16.374;2022-10-26T19:47:14;100844.48;;;13.39;98.75
37304;BME280;23188;51.188;16.374;2022-10-26T19:51:15;100856.30;;;13.31;99.67
37304;BME280;23188;51.188;16.374;2022-10-26T19:55:17;100853.27;;;13.29;100.00
37304;BME280;23188;51.188;16.374;2022-10-26T19:59:18;100857.78;;;13.29;100.00
37304;BME280;23188;51.188;16.374;2022-10-26T20:03:19;100860.66;;;13.32;100.00
37304;BME280;23188;51.188;16.374;2022-10-26T20:07:21;100867.94;;;13.35;100.00
37304;BME280;23188;51.188;16.374;2022-10-26T20:11:22;100868.89;;;13.40;100.00
37304;BME280;23188;51.188;16.374;2022-10-26T20:15:24;100868.27;;;13.42;100.00
37304;BME280;23188;51.188;16.374;2022-10-26T20:19:25;100872.88;;;13.46;100.00
37304;BME280;23188;51.188;16.374;2022-10-26T20:23:26;100881.58;;;13.53;100.00
37304;BME280;23188;51.188;16.374;2022-10-26T20:27:28;100879.92;;;13.68;100.00
37304;BME280;23188;51.188;16.374;2022-10-26T20:31:29;100883.57;;;13.67;100.00
37304;BME280;23188;51.188;16.374;2022-10-26T20:35:31;100874.66;;;13.72;100.00
37304;BME280;23188;51.188;16.374;2022-10-26T20:39:34;100878.67;;;13.72;100.00
37304;BME280;23188;51.188;16.374;2022-10-26T20:43:38;100875.79;;;13.69;100.00
37304;BME280;23188;51.188;16.374;2022-10-26T20:47:40;100885.63;;;13.69;100.00
37304;BME280;23188;51.188;16.374;2022-10-26T20:56:00;100892.16;;;13.76;100.00
37304;BME280;23188;51.188;16.374;2022-10-26T21:00:08;100894.68;;;13.78;100.00
37304;BME280;23188;51.188;16.374;2022-10-26T21:04:11;100898.42;;;13.81;100.00
37304;BME280;23188;51.188;16.374;2022-10-26T21:08:12;100887.34;;;13.85;100.00
37304;BME280;23188;51.188;16.374;2022-10-26T21:12:14;100888.77;;;13.90;100.00
37304;BME280;23188;51.188;16.374;2022-10-26T21:16:16;100886.71;;;13.88;100.00
37304;BME280;23188;51.188;16.374;2022-10-26T21:20:17;100890.02;;;13.85;100.00
37304;BME280;23188;51.188;16.374;2022-10-26T21:24:18;100896.34;;;13.84;100.00
37304;BME280;23188;51.188;16.374;2022-10-26T21:28:23;100908.37;;;13.84;99.86
37304;BME280;23188;51.188;16.374;2022-10-26T21:32:34;100913.12;;;13.81;99.23
37304;BME280;23188;51.188;16.374;2022-10-26T21:36:32;100914.77;;;13.72;99.80
37304;BME280;23188;51.188;16.374;2022-10-26T21:40:34;100917.70;;;13.69;100.00
37304;BME280;23188;51.188;16.374;2022-10-26T21:44:35;100918.14;;;13.59;100.00
37304;BME280;23188;51.188;16.374;2022-10-26T21:48:37;100919.98;;;13.52;100.00
37304;BME280;23188;51.188;16.374;2022-10-26T21:52:40;100924.94;;;13.57;100.00
37304;BME280;23188;51.188;16.374;2022-10-26T21:56:41;100925.66;;;13.59;100.00
37304;BME280;23188;51.188;16.374;2022-10-26T22:00:43;100921.91;;;13.56;100.00
37304;BME280;23188;51.188;16.374;2022-10-26T22:04:44;100935.66;;;13.51;100.00
37304;BME280;23188;51.188;16.374;2022-10-26T22:08:45;100937.25;;;13.48;100.00
37304;BME280;23188;51.188;16.374;2022-10-26T22:12:47;100939.21;;;13.46;100.00
37304;BME280;23188;51.188;16.374;2022-10-26T22:16:49;100938.69;;;13.52;100.00
37304;BME280;23188;51.188;16.374;2022-10-26T22:20:57;100934.92;;;13.55;100.00
37304;BME280;23188;51.188;16.374;2022-10-26T22:24:59;100936.95;;;13.63;100.00
37304;BME280;23188;51.188;16.374;2022-10-26T22:29:00;100937.39;;;13.68;100.00
37304;BME280;23188;51.188;16.374;2022-10-26T22:33:02;100932.41;;;13.69;100.00
37304;BME280;23188;51.188;16.374;2022-10-26T22:37:03;100930.35;;;13.67;100.00
37304;BME280;23188;51.188;16.374;2022-10-26T22:41:05;100931.36;;;13.60;100.00
37304;BME280;23188;51.188;16.374;2022-10-26T22:45:07;100932.05;;;13.47;100.00
37304;BME280;23188;51.188;16.374;2022-10-26T22:49:10;100931.80;;;13.50;100.00
37304;BME280;23188;51.188;16.374;2022-10-26T22:53:11;100942.03;;;13.33;100.00
37304;BME280;23188;51.188;16.374;2022-10-26T22:57:12;100939.89;;;13.21;100.00
37304;BME280;23188;51.188;16.374;2022-10-26T23:01:16;100943.02;;;13.32;100.00
37304;BME280;23188;51.188;16.374;2022-10-26T23:05:18;100948.80;;;13.49;100.00
37304;BME280;23188;51.188;16.374;2022-10-26T23:09:19;100940.06;;;13.41;100.00
37304;BME280;23188;51.188;16.374;2022-10-26T23:13:21;100947.03;;;13.26;100.00
37304;BME280;23188;51.188;16.374;2022-10-26T23:17:22;100959.79;;;13.23;100.00
37304;BME280;23188;51.188;16.374;2022-10-26T23:21:24;100954.88;;;13.39;100.00